Albert Maersk — OUOW2 — position and weather

sailwx.info

Track history (hours):
 
Tides and Currents Weather Stations Pressure Air Temp Water Temp Dewpoint Dewpoint Depression Visibility Wind Speed Wind Dir Waves Ship Positions

Albert Maersk

Last reported at 2016-Sep-24 02:33 UTC. Time now 2016-Sep-26 10:33 UTC.
Position N 26°06' W 079°27'.

MMSI: 220259928.

Date/timePositionNaut miles runAvg speedWind from/ knotsBaromVisibWave heightAir tempDewpointWater temp
2016-Sep-24 02:33N 26°06' W 079°27'2019.8
2016-Sep-24 01:33N 25°57' W 079°46'1919.1
2016-Sep-24 00:33N 25°47' W 080°04'5 1.0
2016-Sep-23 19:32N 25°46' W 080°09'0 0.0
2016-Sep-23 17:32N 25°46' W 080°09'0 0.0
2016-Sep-23 16:32N 25°46' W 080°09'0 0.0
2016-Sep-23 15:32N 25°46' W 080°09'0 0.0
2016-Sep-23 13:32N 25°46' W 080°09'0 0.0
2016-Sep-23 09:32N 25°46' W 080°09'15 4.9
2016-Sep-23 06:33N 25°58' W 079°60'16 8.1
2016-Sep-23 04:33N 26°14' W 079°57'7 6.9
2016-Sep-23 03:33N 26°21' W 079°56'7 7.1
2016-Sep-23 02:33N 26°28' W 079°55'8 7.5
2016-Sep-23 01:33N 26°35' W 079°54'7 7.3
2016-Sep-23 00:33N 26°42' W 079°54'8 7.7
2016-Sep-22 23:32N 26°50' W 079°54'32010.3
2016-Sep-21 16:33N 32°05' W 080°59'9 1.3
2016-Sep-21 09:31N 32°08' W 081°09'0 0.0
2016-Sep-21 08:31N 32°08' W 081°09'0 0.0
2016-Sep-21 05:31N 32°08' W 081°09'0 0.0
2016-Sep-21 03:31N 32°08' W 081°09'0 0.0
2016-Sep-21 02:31N 32°08' W 081°09'0 0.0
2016-Sep-20 17:31N 32°08' W 081°09'0 0.0
2016-Sep-20 14:31N 32°08' W 081°09'0 0.0
2016-Sep-20 13:31N 32°08' W 081°09'0 0.0
2016-Sep-20 10:31N 32°08' W 081°09'0 0.0
2016-Sep-20 08:31N 32°08' W 081°09'0 0.0
2016-Sep-20 07:31N 32°08' W 081°09'0 0.0
2016-Sep-20 06:31N 32°08' W 081°09'18 4.5
2016-Sep-20 02:34N 32°02' W 080°49'17 5.7
2016-Sep-19 23:33N 31°59' W 080°29'37 6.7
2016-Sep-19 18:04N 32°17' W 079°51'  
2016-Sep-16 12:32N 40°36' W 074°03'7 2.2
2016-Sep-16 09:29N 40°41' W 074°09'0 0.0
2016-Sep-16 07:32N 40°41' W 074°09'0 0.0
2016-Sep-16 03:32N 40°41' W 074°09'0 0.0
2016-Sep-16 02:32N 40°41' W 074°09'0 0.0
2016-Sep-16 00:21N 40°41' W 074°09'0 0.0
2016-Sep-15 22:22N 40°41' W 074°09'0 0.0
2016-Sep-15 21:33N 40°41' W 074°09'3 2.5
2016-Sep-15 20:34N 40°39' W 074°07'13 6.7
2016-Sep-15 18:34N 40°29' W 073°55'  
Track history (hours):
 
Tides and Currents Weather Stations Pressure Air Temp Water Temp Dewpoint Dewpoint Depression Visibility Wind Speed Wind Dir Waves Ship Positions

Albert Maersk

Last reported at 2016-Sep-24 02:33 UTC. Time now 2016-Sep-26 10:33 UTC.
Position N 26°06' W 079°27'.

MMSI: 220259928.

Date/timePositionNaut miles runAvg speedWind from/ knotsBaromVisibWave heightAir tempDewpointWater temp
2016-Sep-24 02:33N 26°06' W 079°27'2019.8
2016-Sep-24 01:33N 25°57' W 079°46'1919.1
2016-Sep-24 00:33N 25°47' W 080°04'5 1.0
2016-Sep-23 19:32N 25°46' W 080°09'0 0.0
2016-Sep-23 17:32N 25°46' W 080°09'0 0.0
2016-Sep-23 16:32N 25°46' W 080°09'0 0.0
2016-Sep-23 15:32N 25°46' W 080°09'0 0.0
2016-Sep-23 13:32N 25°46' W 080°09'0 0.0
2016-Sep-23 09:32N 25°46' W 080°09'15 4.9
2016-Sep-23 06:33N 25°58' W 079°60'16 8.1
2016-Sep-23 04:33N 26°14' W 079°57'7 6.9
2016-Sep-23 03:33N 26°21' W 079°56'7 7.1
2016-Sep-23 02:33N 26°28' W 079°55'8 7.5
2016-Sep-23 01:33N 26°35' W 079°54'7 7.3
2016-Sep-23 00:33N 26°42' W 079°54'8 7.7
2016-Sep-22 23:32N 26°50' W 079°54'32010.3
2016-Sep-21 16:33N 32°05' W 080°59'9 1.3
2016-Sep-21 09:31N 32°08' W 081°09'0 0.0
2016-Sep-21 08:31N 32°08' W 081°09'0 0.0
2016-Sep-21 05:31N 32°08' W 081°09'0 0.0
2016-Sep-21 03:31N 32°08' W 081°09'0 0.0
2016-Sep-21 02:31N 32°08' W 081°09'0 0.0
2016-Sep-20 17:31N 32°08' W 081°09'0 0.0
2016-Sep-20 14:31N 32°08' W 081°09'0 0.0
2016-Sep-20 13:31N 32°08' W 081°09'0 0.0
2016-Sep-20 10:31N 32°08' W 081°09'0 0.0
2016-Sep-20 08:31N 32°08' W 081°09'0 0.0
2016-Sep-20 07:31N 32°08' W 081°09'0 0.0
2016-Sep-20 06:31N 32°08' W 081°09'18 4.5
2016-Sep-20 02:34N 32°02' W 080°49'17 5.7
2016-Sep-19 23:33N 31°59' W 080°29'37 6.7
2016-Sep-19 18:04N 32°17' W 079°51'  
2016-Sep-16 12:32N 40°36' W 074°03'7 2.2
2016-Sep-16 09:29N 40°41' W 074°09'0 0.0
2016-Sep-16 07:32N 40°41' W 074°09'0 0.0
2016-Sep-16 03:32N 40°41' W 074°09'0 0.0
2016-Sep-16 02:32N 40°41' W 074°09'0 0.0
2016-Sep-16 00:21N 40°41' W 074°09'0 0.0
2016-Sep-15 22:22N 40°41' W 074°09'0 0.0
2016-Sep-15 21:33N 40°41' W 074°09'3 2.5
2016-Sep-15 20:34N 40°39' W 074°07'13 6.7
2016-Sep-15 18:34N 40°29' W 073°55'  

Dump ship's entire track history